Time;durP1;ratioP1;P1;durP2;ratioP2;P2;SDS_P1;SDS_P2;PMS_P1;PMS_P2;Temp;Humidity;BMP_temperature;BMP_pressure;BME280_temperature;BME280_humidity;BME280_pressure;Samples;Min_cycle;Max_cycle;Signal;HPM_P1;HPM_P2
2023/05/11 00:02:07;;;;;;;;;;;13.30;91.60;;;;;;4939199;29;20354;-96
2023/05/11 00:04:32;;;;;;;;;;;13.30;91.70;;;;;;4938639;29;19947;-96
2023/05/11 00:06:58;;;;;;;;;;;13.30;91.60;;;;;;4938217;29;19918;-96
2023/05/11 00:09:24;;;;;;;;;;;13.30;91.50;;;;;;4940303;29;20005;-96
2023/05/11 00:11:53;;;;;;;;;;;13.30;91.40;;;;;;4939912;29;19995;-96
2023/05/11 00:14:18;;;;;;;;;;;13.30;91.30;;;;;;4941918;29;19995;-96
2023/05/11 00:16:44;;;;;;;;;;;13.30;91.30;;;;;;4943938;29;19966;-96
2023/05/11 00:19:10;;;;;;;;;;;13.30;91.00;;;;;;4942669;28;19910;-96
2023/05/11 00:21:36;;;;;;;;;;;13.30;90.00;;;;;;4940901;29;19911;-96
2023/05/11 00:24:02;;;;;;;;;;;13.30;90.00;;;;;;4941352;29;19937;-96
2023/05/11 00:26:27;;;;;;;;;;;13.40;89.80;;;;;;4941400;29;19974;-96
2023/05/11 00:28:53;;;;;;;;;;;13.30;90.00;;;;;;4941230;29;20359;-96
2023/05/11 00:31:19;;;;;;;;;;;13.30;90.30;;;;;;4941499;29;19911;-96
2023/05/11 00:33:44;;;;;;;;;;;13.30;90.50;;;;;;4941168;29;19911;-96
2023/05/11 00:36:10;;;;;;;;;;;13.30;90.50;;;;;;4941105;29;19917;-96
2023/05/11 00:38:39;;;;;;;;;;;13.30;90.70;;;;;;4941343;29;20294;-96
2023/05/11 00:41:05;;;;;;;;;;;13.20;90.70;;;;;;4942674;29;19911;-96
2023/05/11 00:43:31;;;;;;;;;;;13.20;90.90;;;;;;4942534;29;19922;-96
2023/05/11 00:45:56;;;;;;;;;;;13.20;91.10;;;;;;4942678;28;19911;-96
2023/05/11 00:48:22;;;;;;;;;;;13.20;91.20;;;;;;4942184;29;19954;-96
2023/05/11 00:50:48;;;;;;;;;;;13.20;91.40;;;;;;4942169;29;19915;-96
2023/05/11 00:53:14;;;;;;;;;;;13.20;91.60;;;;;;4943493;29;19917;-96
2023/05/11 00:55:40;;;;;;;;;;;13.20;91.70;;;;;;4942438;29;19922;-96
2023/05/11 00:58:06;;;;;;;;;;;13.10;91.70;;;;;;4942526;29;19953;-96
2023/05/11 01:00:32;;;;;;;;;;;13.10;91.60;;;;;;4942450;29;19961;-96
2023/05/11 01:02:59;;;;;;;;;;;13.10;91.60;;;;;;4942543;29;19932;-96
2023/05/11 01:05:29;;;;;;;;;;;13.10;91.40;;;;;;4941265;29;19957;-96
2023/05/11 01:07:55;;;;;;;;;;;13.00;91.40;;;;;;4941204;29;19911;-96
2023/05/11 01:10:26;;;;;;;;;;;13.00;91.50;;;;;;4940855;29;19911;-96
2023/05/11 01:13:11;;;;;;;;;;;12.90;91.60;;;;;;4942267;29;19917;-96
2023/05/11 01:15:55;;;;;;;;;;;12.90;91.80;;;;;;4944315;28;19911;-96
2023/05/11 01:18:33;;;;;;;;;;;12.90;91.90;;;;;;4943011;29;19993;-96
2023/05/11 01:21:00;;;;;;;;;;;13.00;91.80;;;;;;4941002;29;20335;-96
2023/05/11 01:23:25;;;;;;;;;;;12.90;91.90;;;;;;4940046;29;19915;-96
2023/05/11 01:26:00;;;;;;;;;;;13.00;91.70;;;;;;4940826;29;19918;-96
2023/05/11 01:28:35;;;;;;;;;;;13.00;91.80;;;;;;4940403;29;19911;-95
2023/05/11 01:31:05;;;;;;;;;;;12.90;92.10;;;;;;4940344;29;20418;-96
2023/05/11 01:33:32;;;;;;;;;;;12.90;92.20;;;;;;4940317;29;20421;-96
2023/05/11 01:36:01;;;;;;;;;;;12.90;92.30;;;;;;4941006;29;20442;-96
2023/05/11 01:38:30;;;;;;;;;;;12.80;92.50;;;;;;4941556;29;20422;-96
2023/05/11 01:40:56;;;;;;;;;;;12.80;92.80;;;;;;4942571;29;19914;-96
2023/05/11 01:43:24;;;;;;;;;;;12.80;92.70;;;;;;4941535;29;19962;-96
2023/05/11 01:45:51;;;;;;;;;;;12.80;92.50;;;;;;4942725;29;20367;-96
2023/05/11 01:48:19;;;;;;;;;;;12.80;92.40;;;;;;4943739;29;20283;-96
2023/05/11 01:50:45;;;;;;;;;;;12.90;92.20;;;;;;4944581;29;20001;-96
2023/05/11 01:53:12;;;;;;;;;;;12.90;91.90;;;;;;4944702;29;19942;-96
2023/05/11 01:55:39;;;;;;;;;;;12.90;91.70;;;;;;4943962;29;19934;-96
2023/05/11 01:58:06;;;;;;;;;;;12.90;91.70;;;;;;4944271;29;19911;-96
2023/05/11 02:00:32;;;;;;;;;;;12.90;91.70;;;;;;4944242;29;20422;-96
2023/05/11 02:02:58;;;;;;;;;;;12.90;91.70;;;;;;4944511;29;19958;-96
2023/05/11 02:05:23;;;;;;;;;;;12.90;91.70;;;;;;4944473;29;19911;-96
2023/05/11 02:07:50;;;;;;;;;;;12.90;91.70;;;;;;4944877;29;19918;-96
2023/05/11 02:10:16;;;;;;;;;;;12.90;91.60;;;;;;4946134;28;19911;-96
2023/05/11 02:12:43;;;;;;;;;;;12.90;91.40;;;;;;4944486;29;19948;-96
2023/05/11 02:15:09;;;;;;;;;;;12.80;91.30;;;;;;4946266;29;19911;-96
2023/05/11 02:17:37;;;;;;;;;;;12.80;91.50;;;;;;4946716;29;19918;-96
2023/05/11 02:20:04;;;;;;;;;;;12.80;91.50;;;;;;4945416;29;19911;-96
2023/05/11 02:22:31;;;;;;;;;;;12.80;91.70;;;;;;4946031;29;19958;-96
2023/05/11 02:24:58;;;;;;;;;;;12.80;91.80;;;;;;4945082;29;19911;-96
2023/05/11 02:27:24;;;;;;;;;;;12.80;91.90;;;;;;4946537;29;19915;-96
2023/05/11 02:29:50;;;;;;;;;;;12.80;92.10;;;;;;4944265;29;19911;-96
2023/05/11 02:32:17;;;;;;;;;;;12.60;92.30;;;;;;4945751;29;19911;-96
2023/05/11 02:34:44;;;;;;;;;;;12.60;92.60;;;;;;4944298;29;19966;-96
2023/05/11 02:37:12;;;;;;;;;;;12.60;92.70;;;;;;4945254;29;19918;-96
2023/05/11 02:39:38;;;;;;;;;;;12.50;92.80;;;;;;4944779;29;19946;-96
2023/05/11 02:42:08;;;;;;;;;;;12.50;92.80;;;;;;4945597;29;19918;-96
2023/05/11 02:44:35;;;;;;;;;;;12.50;92.90;;;;;;4943933;29;20367;-96
2023/05/11 02:47:02;;;;;;;;;;;12.50;93.10;;;;;;4944425;29;19962;-96
2023/05/11 02:49:29;;;;;;;;;;;12.60;93.20;;;;;;4944544;29;20014;-96
2023/05/11 02:51:56;;;;;;;;;;;12.50;93.20;;;;;;4944319;29;19910;-96
2023/05/11 02:54:22;;;;;;;;;;;12.50;93.20;;;;;;4944457;29;19915;-96
2023/05/11 02:56:48;;;;;;;;;;;12.60;93.30;;;;;;4947049;29;19966;-96
2023/05/11 02:59:14;;;;;;;;;;;12.50;93.40;;;;;;4946515;29;20378;-96
2023/05/11 03:01:40;;;;;;;;;;;12.50;93.50;;;;;;4946360;29;19954;-96
2023/05/11 03:04:06;;;;;;;;;;;12.40;93.40;;;;;;4946497;29;19921;-96
2023/05/11 03:06:32;;;;;;;;;;;12.40;93.30;;;;;;4947118;29;19910;-96
2023/05/11 03:08:58;;;;;;;;;;;12.40;93.10;;;;;;4964401;29;20001;-96
2023/05/11 03:11:24;;;;;;;;;;;12.40;93.00;;;;;;4963259;29;19911;-96
2023/05/11 03:13:50;;;;;;;;;;;12.40;93.00;;;;;;4945644;29;19911;-96
2023/05/11 03:16:16;;;;;;;;;;;12.40;93.00;;;;;;4945407;29;19918;-96
2023/05/11 03:18:43;;;;;;;;;;;12.40;93.00;;;;;;4945254;29;19910;-96
2023/05/11 03:21:09;;;;;;;;;;;12.40;93.20;;;;;;4945929;29;19911;-95
2023/05/11 03:23:35;;;;;;;;;;;12.30;93.40;;;;;;4945910;29;19922;-96
2023/05/11 03:26:03;;;;;;;;;;;12.30;93.50;;;;;;4945622;29;19911;-96
2023/05/11 03:28:28;;;;;;;;;;;12.20;93.30;;;;;;4944829;29;19922;-96
2023/05/11 03:30:54;;;;;;;;;;;12.10;93.20;;;;;;4944225;29;19914;-96
2023/05/11 03:33:20;;;;;;;;;;;12.10;93.00;;;;;;4961505;29;19911;-96
2023/05/11 03:35:48;;;;;;;;;;;12.20;92.10;;;;;;4945180;29;19910;-96
2023/05/11 03:38:14;;;;;;;;;;;12.30;91.50;;;;;;4963170;29;19917;-96
2023/05/11 03:40:41;;;;;;;;;;;12.30;92.00;;;;;;4962998;29;19910;-96
2023/05/11 03:43:09;;;;;;;;;;;12.30;92.30;;;;;;4946190;28;19958;-96
2023/05/11 03:45:36;;;;;;;;;;;12.20;92.50;;;;;;4946894;28;20398;-96
2023/05/11 03:48:03;;;;;;;;;;;12.20;92.60;;;;;;4950153;29;19998;-96
2023/05/11 03:50:29;;;;;;;;;;;12.20;92.80;;;;;;4950256;29;20377;-96
2023/05/11 03:52:55;;;;;;;;;;;12.30;92.70;;;;;;4950330;29;19911;-96
2023/05/11 03:55:21;;;;;;;;;;;12.30;92.60;;;;;;4947169;29;19930;-96
2023/05/11 03:57:47;;;;;;;;;;;12.30;92.70;;;;;;4948485;29;19910;-96
2023/05/11 04:00:13;;;;;;;;;;;12.30;92.60;;;;;;4947711;29;19922;-96
2023/05/11 04:02:39;;;;;;;;;;;12.40;92.60;;;;;;4947589;29;19918;-96
2023/05/11 04:05:09;;;;;;;;;;;12.40;92.30;;;;;;4948805;29;19911;-96
2023/05/11 04:07:36;;;;;;;;;;;12.40;92.40;;;;;;4947440;29;19933;-96
2023/05/11 04:10:02;;;;;;;;;;;12.40;92.50;;;;;;4948129;29;19933;-95
2023/05/11 04:12:28;;;;;;;;;;;12.40;92.60;;;;;;4947395;29;19922;-96
2023/05/11 04:14:54;;;;;;;;;;;12.40;92.50;;;;;;4946863;29;19911;-96
2023/05/11 04:17:19;;;;;;;;;;;12.40;92.50;;;;;;4947363;29;20350;-96
2023/05/11 04:19:45;;;;;;;;;;;12.30;92.50;;;;;;4948746;29;19949;-96
2023/05/11 04:22:11;;;;;;;;;;;12.30;92.40;;;;;;4945951;29;19915;-96
2023/05/11 04:24:37;;;;;;;;;;;12.20;92.30;;;;;;4946065;29;19962;-96
2023/05/11 04:27:03;;;;;;;;;;;12.20;92.30;;;;;;4946463;29;19910;-96
2023/05/11 04:29:28;;;;;;;;;;;12.20;92.30;;;;;;4946190;29;19966;-96
2023/05/11 04:31:54;;;;;;;;;;;12.20;92.40;;;;;;4947342;29;20302;-96
2023/05/11 04:34:22;;;;;;;;;;;12.20;92.60;;;;;;4946831;29;19918;-96
2023/05/11 04:36:48;;;;;;;;;;;12.20;92.70;;;;;;4946290;29;19937;-96
2023/05/11 04:39:15;;;;;;;;;;;12.20;92.80;;;;;;4946556;29;19917;-96
2023/05/11 04:41:41;;;;;;;;;;;12.20;93.00;;;;;;4946160;29;19957;-96
2023/05/11 04:44:07;;;;;;;;;;;12.10;93.20;;;;;;4947573;29;20005;-96
2023/05/11 04:46:33;;;;;;;;;;;12.10;93.40;;;;;;4948636;29;19911;-96
2023/05/11 04:49:03;;;;;;;;;;;12.10;93.50;;;;;;4949838;29;19962;-96
2023/05/11 04:51:28;;;;;;;;;;;12.10;93.60;;;;;;4949851;29;19915;-96
2023/05/11 04:53:54;;;;;;;;;;;12.10;93.80;;;;;;4949450;29;19911;-96
2023/05/11 04:56:20;;;;;;;;;;;12.10;93.90;;;;;;4949464;29;19932;-95
2023/05/11 04:58:46;;;;;;;;;;;12.10;94.00;;;;;;4950285;29;20323;-96
2023/05/11 05:01:12;;;;;;;;;;;12.10;94.00;;;;;;4950977;29;19957;-96
2023/05/11 05:03:37;;;;;;;;;;;12.10;94.10;;;;;;4951993;29;19906;-96
2023/05/11 05:06:03;;;;;;;;;;;12.10;94.10;;;;;;4951619;29;19911;-96
2023/05/11 05:08:29;;;;;;;;;;;12.10;94.20;;;;;;4951097;29;19911;-96
2023/05/11 05:10:55;;;;;;;;;;;12.10;94.20;;;;;;4951038;29;19939;-96
2023/05/11 05:13:20;;;;;;;;;;;12.10;94.20;;;;;;4950319;29;19910;-96
2023/05/11 05:15:46;;;;;;;;;;;12.10;94.20;;;;;;4949812;29;19914;-96
2023/05/11 05:18:12;;;;;;;;;;;12.10;94.30;;;;;;4951450;29;19911;-96
2023/05/11 05:20:38;;;;;;;;;;;12.10;94.40;;;;;;4949483;29;19911;-96
2023/05/11 05:23:04;;;;;;;;;;;12.10;94.40;;;;;;4947664;29;19915;-96
2023/05/11 05:25:30;;;;;;;;;;;12.10;94.30;;;;;;4948723;29;19974;-96
2023/05/11 05:27:56;;;;;;;;;;;12.00;94.30;;;;;;4945865;29;19982;-96
2023/05/11 05:30:22;;;;;;;;;;;11.90;94.30;;;;;;4942662;29;19957;-96
2023/05/11 05:32:47;;;;;;;;;;;11.90;94.40;;;;;;4942593;29;19918;-96
2023/05/11 05:35:13;;;;;;;;;;;11.90;94.40;;;;;;4942592;29;19970;-96
2023/05/11 05:37:39;;;;;;;;;;;11.90;94.40;;;;;;4942562;29;19911;-96
2023/05/11 05:40:05;;;;;;;;;;;11.90;94.50;;;;;;4940234;29;19911;-96
2023/05/11 05:42:31;;;;;;;;;;;12.00;94.50;;;;;;4939374;29;20323;-96
2023/05/11 05:44:59;;;;;;;;;;;12.10;94.50;;;;;;4942333;29;19938;-96
2023/05/11 05:47:25;;;;;;;;;;;12.10;94.50;;;;;;4944195;29;19947;-96
2023/05/11 05:49:50;;;;;;;;;;;12.10;94.40;;;;;;4940936;29;19918;-96
2023/05/11 05:52:16;;;;;;;;;;;12.10;94.30;;;;;;4941219;29;19911;-96
2023/05/11 05:54:42;;;;;;;;;;;12.20;94.20;;;;;;4943923;29;19969;-96
2023/05/11 05:57:07;;;;;;;;;;;12.30;94.20;;;;;;4942312;29;19910;-96
2023/05/11 05:59:33;;;;;;;;;;;12.40;94.20;;;;;;4941898;29;19917;-96
2023/05/11 06:01:59;;;;;;;;;;;12.30;94.10;;;;;;4948178;29;19915;-96
2023/05/11 06:04:24;;;;;;;;;;;12.40;94.00;;;;;;4960879;29;19911;-96
2023/05/11 06:06:50;;;;;;;;;;;12.40;93.80;;;;;;4966036;29;19910;-96
2023/05/11 06:09:16;;;;;;;;;;;12.30;93.60;;;;;;4964504;28;19956;-96
2023/05/11 06:11:42;;;;;;;;;;;12.30;93.70;;;;;;4969898;29;19911;-96
2023/05/11 06:14:08;;;;;;;;;;;12.40;93.80;;;;;;4954527;29;19915;-96
2023/05/11 06:16:33;;;;;;;;;;;12.40;93.80;;;;;;4952194;29;19911;-96
2023/05/11 06:19:01;;;;;;;;;;;12.30;93.80;;;;;;4951247;29;19918;-96
2023/05/11 06:24:04;;;;;;;;;;;12.40;93.90;;;;;;5244669;23;19923;-96
2023/05/11 06:26:31;;;;;;;;;;;12.40;93.90;;;;;;4961548;28;19922;-96
2023/05/11 06:29:02;;;;;;;;;;;12.40;94.00;;;;;;4936019;29;19895;-96
2023/05/11 06:31:42;;;;;;;;;;;12.30;94.00;;;;;;4942388;29;19918;-96
2023/05/11 06:34:10;;;;;;;;;;;12.30;94.00;;;;;;4942068;29;19934;-96
2023/05/11 06:36:42;;;;;;;;;;;12.40;93.90;;;;;;4941764;29;19999;-96
2023/05/11 06:39:20;;;;;;;;;;;12.40;93.70;;;;;;4958231;29;19966;-96
2023/05/11 06:41:50;;;;;;;;;;;12.40;93.50;;;;;;4940813;29;19911;-96
2023/05/11 06:44:16;;;;;;;;;;;12.40;93.40;;;;;;4930922;29;19935;-96
2023/05/11 06:46:55;;;;;;;;;;;12.30;93.30;;;;;;4923398;29;19903;-96
2023/05/11 06:49:29;;;;;;;;;;;12.30;93.30;;;;;;4921480;29;19972;-96
2023/05/11 06:52:02;;;;;;;;;;;12.30;93.40;;;;;;4938629;29;19905;-96
2023/05/11 06:54:33;;;;;;;;;;;12.30;93.40;;;;;;4910340;29;19916;-96
2023/05/11 07:04:54;;;;;;;;;;;12.20;93.60;;;;;;4077265;27;19934;-96
2023/05/11 07:08:04;;;;;;;;;;;12.30;93.80;;;;;;5068823;23;19970;-96
2023/05/11 07:13:10;;;;;;;;;;;12.40;93.40;;;;;;4956297;28;19927;-96
2023/05/11 07:15:43;;;;;;;;;;;12.40;93.10;;;;;;4927402;29;19919;-96
2023/05/11 07:18:22;;;;;;;;;;;12.40;93.20;;;;;;4942230;29;19949;-96
2023/05/11 07:20:51;;;;;;;;;;;12.30;93.30;;;;;;4941541;29;19911;-96
2023/05/11 07:23:21;;;;;;;;;;;12.30;93.50;;;;;;4941918;29;19922;-96
2023/05/11 07:25:48;;;;;;;;;;;12.40;93.50;;;;;;4944149;29;19901;-96
2023/05/11 07:28:28;;;;;;;;;;;12.40;93.20;;;;;;4943551;29;19919;-96
2023/05/11 07:31:07;;;;;;;;;;;12.40;92.90;;;;;;4959930;29;19911;-96
2023/05/11 07:33:39;;;;;;;;;;;12.50;92.80;;;;;;4942622;29;19895;-96
2023/05/11 07:36:18;;;;;;;;;;;12.50;92.70;;;;;;4944262;29;19895;-96
2023/05/11 07:38:45;;;;;;;;;;;12.60;92.60;;;;;;5271783;23;19925;-96
2023/05/11 07:41:11;;;;;;;;;;;12.60;92.60;;;;;;4952909;29;19918;-96
2023/05/11 07:43:40;;;;;;;;;;;12.50;92.90;;;;;;4957207;29;20005;-96
2023/05/11 07:46:08;;;;;;;;;;;12.50;93.00;;;;;;4957080;29;19997;-96
2023/05/11 07:48:36;;;;;;;;;;;12.50;93.10;;;;;;4972185;28;19933;-96
2023/05/11 07:51:02;;;;;;;;;;;12.50;93.30;;;;;;4951690;29;19918;-96
2023/05/11 07:53:28;;;;;;;;;;;12.40;93.30;;;;;;4954331;29;19910;-96
2023/05/11 07:55:58;;;;;;;;;;;12.40;93.10;;;;;;4958761;29;19910;-96
2023/05/11 07:58:27;;;;;;;;;;;12.40;93.30;;;;;;4974072;29;19975;-96
2023/05/11 08:00:53;;;;;;;;;;;12.40;93.30;;;;;;4959121;29;19926;-96
2023/05/11 08:03:25;;;;;;;;;;;12.40;93.50;;;;;;4955462;29;19919;-96
2023/05/11 08:05:54;;;;;;;;;;;12.40;93.60;;;;;;4970875;28;19973;-96
2023/05/11 08:08:22;;;;;;;;;;;12.40;93.60;;;;;;5146953;23;19954;-95
2023/05/11 08:21:54;;;;;;;;;;;12.40;93.50;;;;;;5269124;23;19926;-96
2023/05/11 08:29:31;;;;;;;;;;;12.40;94.20;;;;;;5534374;23;19927;-96
2023/05/11 08:31:57;;;;;;;;;;;12.40;94.20;;;;;;4952405;29;19910;-96
2023/05/11 08:34:24;;;;;;;;;;;12.40;94.30;;;;;;4940501;29;19917;-96
2023/05/11 08:37:00;;;;;;;;;;;12.40;94.30;;;;;;4941366;29;19918;-96
2023/05/11 08:39:33;;;;;;;;;;;12.50;94.40;;;;;;4945318;29;19902;-96
2023/05/11 08:42:05;;;;;;;;;;;12.50;94.30;;;;;;4962223;29;19902;-96
2023/05/11 08:44:36;;;;;;;;;;;12.60;94.30;;;;;;4944797;29;19910;-96
2023/05/11 08:47:05;;;;;;;;;;;12.60;94.00;;;;;;4944291;29;19915;-96
2023/05/11 08:49:32;;;;;;;;;;;12.60;94.10;;;;;;4945599;29;19942;-96
2023/05/11 08:52:05;;;;;;;;;;;12.60;93.90;;;;;;4944876;29;19895;-96
2023/05/11 08:54:40;;;;;;;;;;;12.60;93.90;;;;;;4944330;29;19911;-96
2023/05/11 08:57:11;;;;;;;;;;;12.60;94.20;;;;;;4943004;29;19917;-96
2023/05/11 08:59:43;;;;;;;;;;;12.70;94.30;;;;;;4943837;29;19946;-96
2023/05/11 09:02:13;;;;;;;;;;;12.70;93.80;;;;;;4943849;29;19966;-96
2023/05/11 09:04:43;;;;;;;;;;;12.80;94.00;;;;;;4944311;29;19918;-96
2023/05/11 09:07:11;;;;;;;;;;;12.80;93.90;;;;;;4944453;29;19901;-96
2023/05/11 09:09:55;;;;;;;;;;;12.80;93.70;;;;;;4961232;29;20122;-96
2023/05/11 09:12:28;;;;;;;;;;;12.80;93.60;;;;;;4945138;29;19907;-96
2023/05/11 09:14:58;;;;;;;;;;;12.80;93.70;;;;;;4944665;29;19911;-96
2023/05/11 09:17:38;;;;;;;;;;;12.80;93.50;;;;;;4945850;29;19899;-96
2023/05/11 09:20:14;;;;;;;;;;;12.90;93.50;;;;;;4961260;29;19917;-96
2023/05/11 09:22:44;;;;;;;;;;;13.00;93.90;;;;;;4943455;29;19915;-96
2023/05/11 09:25:19;;;;;;;;;;;13.00;93.80;;;;;;4941698;29;19925;-96
2023/05/11 09:27:49;;;;;;;;;;;13.10;93.80;;;;;;4940288;29;19911;-96
2023/05/11 09:30:20;;;;;;;;;;;13.10;93.50;;;;;;4940691;29;19923;-96
2023/05/11 09:33:03;;;;;;;;;;;13.10;93.40;;;;;;4957280;29;19910;-96
2023/05/11 09:35:33;;;;;;;;;;;13.20;93.20;;;;;;4938518;29;19910;-96
2023/05/11 09:38:03;;;;;;;;;;;13.30;93.40;;;;;;4938727;29;19911;-96
2023/05/11 09:40:36;;;;;;;;;;;13.30;93.40;;;;;;4938696;29;19918;-96
2023/05/11 09:43:05;;;;;;;;;;;13.30;93.20;;;;;;4939379;29;19914;-96
2023/05/11 09:45:37;;;;;;;;;;;13.30;93.00;;;;;;4938170;29;19911;-96
2023/05/11 09:48:04;;;;;;;;;;;13.40;92.90;;;;;;4938390;29;19911;-96
2023/05/11 09:50:34;;;;;;;;;;;13.40;92.70;;;;;;4938522;29;19978;-96
2023/05/11 09:53:01;;;;;;;;;;;13.60;92.60;;;;;;4938378;29;19911;-96
2023/05/11 09:55:31;;;;;;;;;;;13.70;92.30;;;;;;4941943;29;20030;-96
2023/05/11 09:58:09;;;;;;;;;;;13.90;91.70;;;;;;4944538;29;19958;-96
2023/05/11 10:00:54;;;;;;;;;;;14.00;91.30;;;;;;4961578;29;19911;-96
2023/05/11 10:03:24;;;;;;;;;;;13.90;91.00;;;;;;4945578;29;19922;-96
2023/05/11 10:06:11;;;;;;;;;;;14.00;91.00;;;;;;4945506;29;19938;-96
2023/05/11 10:08:51;;;;;;;;;;;14.10;91.10;;;;;;4960672;28;19911;-97
2023/05/11 10:11:30;;;;;;;;;;;14.10;90.90;;;;;;4959292;29;19895;-96
2023/05/11 10:14:08;;;;;;;;;;;14.10;90.80;;;;;;4961001;29;19895;-96
2023/05/11 10:16:48;;;;;;;;;;;14.10;90.10;;;;;;4944088;29;19935;-96
2023/05/11 10:19:19;;;;;;;;;;;14.10;89.20;;;;;;4943269;29;20375;-96
2023/05/11 10:21:46;;;;;;;;;;;14.00;89.30;;;;;;4943123;29;19918;-96
2023/05/11 10:24:15;;;;;;;;;;;14.00;89.70;;;;;;4957883;29;19925;-96
2023/05/11 10:26:45;;;;;;;;;;;14.00;89.70;;;;;;4943985;29;19911;-96
2023/05/11 10:29:14;;;;;;;;;;;13.90;89.70;;;;;;4942326;29;19895;-96
2023/05/11 10:31:44;;;;;;;;;;;13.90;89.40;;;;;;4941298;29;19915;-96
2023/05/11 10:34:11;;;;;;;;;;;13.90;89.40;;;;;;4940791;29;19915;-96
2023/05/11 10:36:37;;;;;;;;;;;13.90;89.70;;;;;;4957577;29;19911;-96
2023/05/11 10:39:07;;;;;;;;;;;13.90;89.30;;;;;;4939009;29;19911;-96
2023/05/11 10:41:39;;;;;;;;;;;13.80;89.70;;;;;;4935416;29;19970;-96
2023/05/11 10:44:33;;;;;;;;;;;13.90;89.30;;;;;;4929181;29;20375;-96
2023/05/11 10:46:58;;;;;;;;;;;13.90;89.30;;;;;;4926658;29;19915;-96
2023/05/11 10:49:42;;;;;;;;;;;13.90;89.50;;;;;;4942605;29;19942;-96
2023/05/11 10:52:08;;;;;;;;;;;13.90;89.80;;;;;;4922905;29;19911;-96
2023/05/11 10:54:41;;;;;;;;;;;13.90;89.60;;;;;;4921982;29;19910;-96
2023/05/11 10:57:20;;;;;;;;;;;13.90;90.00;;;;;;4923100;29;19911;-96
2023/05/11 11:00:12;;;;;;;;;;;14.00;89.40;;;;;;4923584;29;19911;-96
2023/05/11 11:02:38;;;;;;;;;;;14.00;89.20;;;;;;4923892;29;20010;-96
2023/05/11 11:05:04;;;;;;;;;;;14.00;88.40;;;;;;4924889;29;19942;-96
2023/05/11 11:07:50;;;;;;;;;;;14.10;89.00;;;;;;4924087;29;19917;-96
2023/05/11 11:10:28;;;;;;;;;;;14.10;89.00;;;;;;4923256;29;19910;-96
2023/05/11 11:13:04;;;;;;;;;;;14.10;89.20;;;;;;4924290;29;19911;-96
2023/05/11 11:15:49;;;;;;;;;;;14.10;88.50;;;;;;4939607;29;19914;-96
2023/05/11 11:18:22;;;;;;;;;;;14.10;88.70;;;;;;4913185;29;19978;-96
2023/05/11 11:20:49;;;;;;;;;;;14.20;88.50;;;;;;4924151;29;19911;-96
2023/05/11 11:23:33;;;;;;;;;;;14.30;88.90;;;;;;4924063;29;20386;-96
2023/05/11 11:25:59;;;;;;;;;;;14.30;88.10;;;;;;4923254;29;19995;-96
2023/05/11 11:28:25;;;;;;;;;;;14.30;88.20;;;;;;4923891;29;19911;-96
2023/05/11 11:31:21;;;;;;;;;;;14.40;88.10;;;;;;4923836;29;20286;-96
2023/05/11 11:33:47;;;;;;;;;;;14.30;88.20;;;;;;4921768;29;19915;-96
2023/05/11 11:36:15;;;;;;;;;;;14.30;88.40;;;;;;4939684;29;20326;-96
2023/05/11 11:38:58;;;;;;;;;;;14.30;88.50;;;;;;4941549;29;19911;-96
2023/05/11 11:41:31;;;;;;;;;;;14.20;88.00;;;;;;4937017;29;19962;-96
2023/05/11 11:44:03;;;;;;;;;;;14.00;87.60;;;;;;4941474;29;19915;-96
2023/05/11 11:46:33;;;;;;;;;;;14.00;88.30;;;;;;4940303;29;19974;-96
2023/05/11 11:49:08;;;;;;;;;;;14.00;88.00;;;;;;4925659;29;19931;-96
2023/05/11 11:51:42;;;;;;;;;;;14.00;88.10;;;;;;4958360;29;19915;-96
2023/05/11 11:54:11;;;;;;;;;;;14.00;88.00;;;;;;4941872;29;19918;-96
2023/05/11 11:56:50;;;;;;;;;;;14.00;87.80;;;;;;4942936;29;19922;-96
2023/05/11 11:59:25;;;;;;;;;;;13.90;87.80;;;;;;4942314;29;19942;-96
2023/05/11 12:01:57;;;;;;;;;;;14.00;88.60;;;;;;4958259;29;19918;-96
2023/05/11 12:04:43;;;;;;;;;;;14.00;88.10;;;;;;4957970;29;19898;-96
2023/05/11 12:07:14;;;;;;;;;;;13.90;88.30;;;;;;4941847;29;19901;-96
2023/05/11 12:09:52;;;;;;;;;;;14.00;88.80;;;;;;4961747;29;19910;-96
2023/05/11 12:12:28;;;;;;;;;;;13.90;88.50;;;;;;4944176;29;19933;-96
2023/05/11 12:17:37;;;;;;;;;;;13.80;89.20;;;;;;5324173;23;19933;-96
2023/05/11 12:20:16;;;;;;;;;;;13.70;89.50;;;;;;4944624;29;19914;-96
2023/05/11 12:22:45;;;;;;;;;;;13.60;89.40;;;;;;4960269;29;20017;-96
2023/05/11 12:25:13;;;;;;;;;;;13.50;89.80;;;;;;4943246;29;19946;-96
2023/05/11 12:27:47;;;;;;;;;;;13.60;90.20;;;;;;4943714;29;19911;-96
2023/05/11 12:30:23;;;;;;;;;;;13.50;90.00;;;;;;4944598;29;19923;-96
2023/05/11 12:32:58;;;;;;;;;;;13.40;89.70;;;;;;4936542;29;19918;-96
2023/05/11 12:35:25;;;;;;;;;;;13.50;90.20;;;;;;4924526;29;19915;-96
2023/05/11 12:37:56;;;;;;;;;;;13.60;90.40;;;;;;4924486;29;19966;-96
2023/05/11 12:40:24;;;;;;;;;;;13.60;90.60;;;;;;4923017;29;19915;-96
2023/05/11 12:42:55;;;;;;;;;;;13.60;90.30;;;;;;4923612;29;19926;-96
2023/05/11 12:45:25;;;;;;;;;;;13.50;90.50;;;;;;4925107;29;19915;-96
2023/05/11 12:47:57;;;;;;;;;;;13.60;90.50;;;;;;4923034;29;19983;-96
2023/05/11 12:50:26;;;;;;;;;;;13.60;90.90;;;;;;4921776;29;19931;-96
2023/05/11 12:53:10;;;;;;;;;;;13.50;90.90;;;;;;4923061;29;19946;-96
2023/05/11 12:55:55;;;;;;;;;;;13.40;91.20;;;;;;4921512;29;19935;-96
2023/05/11 12:58:25;;;;;;;;;;;13.40;91.20;;;;;;4923552;29;19918;-96
2023/05/11 13:00:55;;;;;;;;;;;13.40;91.40;;;;;;4923596;29;19911;-96
2023/05/11 13:03:26;;;;;;;;;;;13.30;91.40;;;;;;4924189;29;19915;-96
2023/05/11 13:06:08;;;;;;;;;;;13.30;90.90;;;;;;4923549;29;19939;-96
2023/05/11 13:08:39;;;;;;;;;;;13.30;91.30;;;;;;4924283;29;19895;-96
2023/05/11 13:11:26;;;;;;;;;;;13.30;91.30;;;;;;4924283;29;19920;-96
2023/05/11 13:13:56;;;;;;;;;;;13.30;91.20;;;;;;4924074;29;19986;-96
2023/05/11 13:16:33;;;;;;;;;;;13.30;91.00;;;;;;4926977;29;19927;-96
2023/05/11 13:19:03;;;;;;;;;;;13.30;91.20;;;;;;4942009;29;19969;-96
2023/05/11 13:21:32;;;;;;;;;;;13.20;91.40;;;;;;4942043;29;19911;-96
2023/05/11 13:24:02;;;;;;;;;;;13.20;91.50;;;;;;4943202;29;19925;-96
2023/05/11 13:26:30;;;;;;;;;;;13.20;91.70;;;;;;4942842;29;19911;-96
2023/05/11 13:29:01;;;;;;;;;;;13.10;91.50;;;;;;4943000;29;19911;-96
2023/05/11 13:31:29;;;;;;;;;;;13.20;91.30;;;;;;4943897;29;19902;-96
2023/05/11 13:34:07;;;;;;;;;;;13.30;91.60;;;;;;4960939;29;19922;-95
2023/05/11 13:36:38;;;;;;;;;;;13.30;91.50;;;;;;4944614;29;19899;-96
2023/05/11 13:39:11;;;;;;;;;;;13.30;91.60;;;;;;4945122;29;19899;-96
2023/05/11 13:41:45;;;;;;;;;;;13.30;91.80;;;;;;4959058;29;19910;-96
2023/05/11 13:44:12;;;;;;;;;;;13.30;91.50;;;;;;4944594;29;20005;-96
2023/05/11 13:46:41;;;;;;;;;;;13.30;91.60;;;;;;4944891;29;19918;-96
2023/05/11 13:49:12;;;;;;;;;;;13.30;91.80;;;;;;4960212;29;19918;-96
2023/05/11 13:51:40;;;;;;;;;;;13.30;91.40;;;;;;4942619;29;19911;-96
2023/05/11 13:54:14;;;;;;;;;;;13.30;91.70;;;;;;4943696;29;19974;-96
2023/05/11 13:56:44;;;;;;;;;;;13.30;91.60;;;;;;4942437;29;19946;-96
2023/05/11 13:59:16;;;;;;;;;;;13.30;91.30;;;;;;4960496;29;20461;-96
2023/05/11 14:01:50;;;;;;;;;;;13.30;91.50;;;;;;4943044;29;19962;-96
2023/05/11 14:04:26;;;;;;;;;;;13.40;91.70;;;;;;4940677;29;19938;-96
2023/05/11 14:06:55;;;;;;;;;;;13.40;91.80;;;;;;4925584;29;19918;-96
2023/05/11 14:09:25;;;;;;;;;;;13.30;91.70;;;;;;4942495;29;19918;-96
2023/05/11 14:11:52;;;;;;;;;;;13.30;91.90;;;;;;4942781;29;19911;-96
2023/05/11 14:14:26;;;;;;;;;;;13.30;91.90;;;;;;4940497;29;19953;-96
2023/05/11 14:16:54;;;;;;;;;;;13.30;91.80;;;;;;4942164;29;20243;-96
2023/05/11 14:19:29;;;;;;;;;;;13.20;91.90;;;;;;4941761;29;19918;-96
2023/05/11 14:22:03;;;;;;;;;;;13.10;92.10;;;;;;4942597;29;19911;-96
2023/05/11 14:24:32;;;;;;;;;;;13.20;92.40;;;;;;4943021;29;19974;-96
2023/05/11 14:27:04;;;;;;;;;;;13.20;92.50;;;;;;4942440;29;19911;-96
2023/05/11 14:29:37;;;;;;;;;;;13.20;92.60;;;;;;4958467;29;19942;-96
2023/05/11 14:32:05;;;;;;;;;;;13.20;92.80;;;;;;4941070;29;19902;-96
2023/05/11 14:34:33;;;;;;;;;;;13.20;92.90;;;;;;4941727;29;19922;-96
2023/05/11 14:37:00;;;;;;;;;;;13.20;93.30;;;;;;4956695;29;19949;-96
2023/05/11 14:39:27;;;;;;;;;;;13.10;93.50;;;;;;4938153;29;19918;-96
2023/05/11 14:41:55;;;;;;;;;;;13.00;93.30;;;;;;4939319;29;19914;-96
2023/05/11 14:44:22;;;;;;;;;;;12.90;93.70;;;;;;4958426;29;19915;-96
2023/05/11 14:46:49;;;;;;;;;;;12.90;94.00;;;;;;4941684;29;19915;-96
2023/05/11 14:49:16;;;;;;;;;;;12.90;94.20;;;;;;4941462;29;19966;-96
2023/05/11 14:51:45;;;;;;;;;;;12.90;94.40;;;;;;4941157;29;19938;-96
2023/05/11 14:54:12;;;;;;;;;;;12.80;94.70;;;;;;4940896;29;19910;-96
2023/05/11 14:56:38;;;;;;;;;;;12.80;94.90;;;;;;4940590;29;19934;-96
2023/05/11 14:59:10;;;;;;;;;;;12.80;95.00;;;;;;4957235;29;19918;-96
2023/05/11 15:01:40;;;;;;;;;;;12.80;94.90;;;;;;4941704;29;19911;-96
2023/05/11 15:04:07;;;;;;;;;;;12.80;94.90;;;;;;4941810;29;19926;-96